Time;durP1;ratioP1;P1;durP2;ratioP2;P2;SDS_P1;SDS_P2;PMS_P1;PMS_P2;Temp;Humidity;BMP_temperature;BMP_pressure;BME280_temperature;BME280_humidity;BME280_pressure;Samples;Min_cycle;Max_cycle;Signal;HPM_P1;HPM_P2
2021/09/27 00:00:22;;;;;;;;;;;;;;;15.30;85.39;97137.00;30001;982;1885;-60
2021/09/27 00:00:57;;;;;;;;;;;;;;;15.29;86.02;97135.41;30001;983;1858;-61
2021/09/27 00:01:28;;;;;;;;;;;;;;;15.28;85.71;97136.53;30001;983;1880;-58
2021/09/27 00:01:59;;;;;;;;;;;;;;;15.27;85.67;97132.19;30001;983;1880;-62
2021/09/27 00:02:30;;;;;;;;;;;;;;;15.27;85.86;97137.66;30001;983;1884;-61
2021/09/27 00:03:01;;;;;;;;;;;;;;;15.27;85.52;97136.84;30001;983;1880;-57
2021/09/27 00:03:31;;;;;;;;;;;;;;;15.28;85.45;97135.72;30001;983;1884;-61
2021/09/27 00:04:03;;;;;;;;;;;;;;;15.26;86.24;97136.03;30001;983;1880;-58
2021/09/27 00:04:34;;;;;;;;;;;;;;;15.25;86.01;97131.69;30001;982;1885;-60
2021/09/27 00:05:09;;;;;;;;;;;;;;;15.26;86.05;97138.78;30001;982;1880;-60
2021/09/27 00:05:40;;;;;;;;;;;;;;;15.26;85.80;97136.03;30001;982;1884;-61
2021/09/27 00:06:12;;;;;;;;;;;;;;;15.26;85.97;97137.97;30001;982;1858;-60
2021/09/27 00:06:42;;;;;;;;;;;;;;;15.26;85.89;97136.03;30001;982;1880;-61
2021/09/27 00:07:13;;;;;;;;;;;;;;;15.25;85.56;97128.97;30001;982;1881;-61
2021/09/27 00:07:45;;;;;;;;;;;;;;;15.26;85.46;97137.97;30001;982;1885;-60
2021/09/27 00:08:16;;;;;;;;;;;;;;;15.25;85.60;97131.69;30001;983;1880;-58
2021/09/27 00:08:47;;;;;;;;;;;;;;;15.26;85.58;97135.22;30001;983;1884;-58
2021/09/27 00:09:18;;;;;;;;;;;;;;;15.24;85.59;97132.84;30001;983;1880;-58
2021/09/27 00:09:48;;;;;;;;;;;;;;;15.25;85.80;97128.16;30001;983;1884;-60
2021/09/27 00:10:22;;;;;;;;;;;;;;;15.24;85.85;97124.66;30001;983;1880;-62
2021/09/27 00:10:58;;;;;;;;;;;;;;;15.24;85.91;97135.56;30001;983;1884;-62
2021/09/27 00:11:28;;;;;;;;;;;;;;;15.23;85.54;97125.75;30001;983;1858;-58
2021/09/27 00:12:00;;;;;;;;;;;;;;;15.25;85.69;97128.16;30001;983;1880;-60
2021/09/27 00:12:31;;;;;;;;;;;;;;;15.22;85.87;97129.63;30001;982;1880;-60
2021/09/27 00:13:03;;;;;;;;;;;;;;;15.23;85.75;97125.75;30001;982;1863;-60
2021/09/27 00:13:35;;;;;;;;;;;;;;;15.23;85.61;97125.75;30001;982;1854;-61
2021/09/27 00:14:06;;;;;;;;;;;;;;;15.23;85.77;97128.50;30001;982;1885;-59
2021/09/27 00:14:38;;;;;;;;;;;;;;;15.23;85.70;97128.50;30001;983;1880;-58
2021/09/27 00:15:12;;;;;;;;;;;;;;;15.22;85.68;97129.63;30001;983;1884;-57
2021/09/27 00:15:44;;;;;;;;;;;;;;;15.22;85.92;97129.63;30001;983;1858;-62
2021/09/27 00:16:15;;;;;;;;;;;;;;;15.22;86.03;97129.63;30001;983;1880;-62
2021/09/27 00:16:46;;;;;;;;;;;;;;;15.21;85.97;97133.47;30001;983;1880;-58
2021/09/27 00:17:17;;;;;;;;;;;;;;;15.21;85.73;97130.75;30001;983;1854;-62
2021/09/27 00:17:48;;;;;;;;;;;;;;;15.20;85.87;97120.94;30001;983;1876;-61
2021/09/27 00:18:19;;;;;;;;;;;;;;;15.19;85.72;97127.50;30001;983;1787;-58
2021/09/27 00:18:50;;;;;;;;;;;;;;;15.20;86.06;97126.41;30001;983;1876;-57
2021/09/27 00:19:24;;;;;;;;;;;;;;;15.21;85.81;97129.94;30001;983;1880;-58
2021/09/27 00:19:54;;;;;;;;;;;;;;;15.21;86.08;97127.19;30001;982;1854;-62
2021/09/27 00:20:25;;;;;;;;;;;;;;;15.21;86.05;97128.00;30001;982;1876;-59
2021/09/27 00:20:59;;;;;;;;;;;;;;;15.21;86.06;97121.72;30001;982;1876;-60
2021/09/27 00:21:31;;;;;;;;;;;;;;;15.21;85.81;97128.00;30001;982;1859;-61
2021/09/27 00:22:03;;;;;;;;;;;;;;;15.19;85.89;97130.25;30001;982;1872;-61
2021/09/27 00:22:34;;;;;;;;;;;;;;;15.19;86.07;97129.44;30001;983;1880;-61
2021/09/27 00:23:05;;;;;;;;;;;;;;;15.16;86.36;97124.59;30001;983;1875;-61
2021/09/27 00:23:37;;;;;;;;;;;;;;;15.15;86.33;97123.81;30001;983;1880;-57
2021/09/27 00:24:08;;;;;;;;;;;;;;;15.13;86.70;97126.03;30001;983;1875;-58
2021/09/27 00:24:38;;;;;;;;;;;;;;;15.11;86.69;97128.28;30001;983;1880;-61
2021/09/27 00:25:11;;;;;;;;;;;;;;;15.10;86.60;97126.66;30001;983;1854;-61
2021/09/27 00:25:42;;;;;;;;;;;;;;;15.10;86.31;97132.12;30001;983;1875;-58
2021/09/27 00:26:13;;;;;;;;;;;;;;;15.08;86.38;97126.19;30001;983;1876;-59
2021/09/27 00:26:44;;;;;;;;;;;;;;;15.07;86.58;97128.09;30001;983;1880;-60
2021/09/27 00:27:15;;;;;;;;;;;;;;;15.08;86.51;97128.91;30001;982;1876;-60
2021/09/27 00:27:46;;;;;;;;;;;;;;;15.09;86.63;97130.53;30001;982;1880;-61
2021/09/27 00:28:17;;;;;;;;;;;;;;;15.07;86.28;97130.03;30001;982;1876;-59
2021/09/27 00:28:48;;;;;;;;;;;;;;;15.08;86.30;97124.25;30001;982;1881;-57
2021/09/27 00:29:19;;;;;;;;;;;;;;;15.06;87.00;97117.50;30001;982;1876;-62
2021/09/27 00:29:50;;;;;;;;;;;;;;;15.05;86.59;97119.41;30001;983;1880;-61
2021/09/27 00:30:21;;;;;;;;;;;;;;;15.05;86.73;97124.06;30001;983;1853;-58
2021/09/27 00:30:52;;;;;;;;;;;;;;;15.04;86.61;97127.94;30001;983;1875;-60
2021/09/27 00:31:23;;;;;;;;;;;;;;;15.03;86.88;97129.06;30001;983;1876;-60
2021/09/27 00:31:54;;;;;;;;;;;;;;;15.06;86.93;97125.69;30001;983;1880;-61
2021/09/27 00:32:25;;;;;;;;;;;;;;;15.06;86.53;97125.69;30001;983;1876;-61
2021/09/27 00:32:56;;;;;;;;;;;;;;;15.07;86.69;97124.56;30001;983;1880;-61
2021/09/27 00:33:27;;;;;;;;;;;;;;;15.08;86.75;97123.44;30001;983;1854;-60
2021/09/27 00:33:58;;;;;;;;;;;;;;;15.08;86.56;97126.19;30001;983;1876;-62
2021/09/27 00:34:29;;;;;;;;;;;;;;;15.07;86.51;97125.38;30001;983;1876;-58
2021/09/27 00:35:01;;;;;;;;;;;;;;;15.06;86.38;97126.50;30001;982;1880;-59
2021/09/27 00:35:33;;;;;;;;;;;;;;;15.05;86.80;97130.34;30001;982;1876;-57
2021/09/27 00:36:05;;;;;;;;;;;;;;;15.03;86.54;97121.66;30001;982;1880;-61
2021/09/27 00:36:39;;;;;;;;;;;;;;;15.01;86.84;97128.56;30001;982;1876;-58
2021/09/27 00:37:10;;;;;;;;;;;;;;;14.99;86.64;97119.87;30001;982;1880;-58
2021/09/27 00:37:41;;;;;;;;;;;;;;;14.98;86.92;97129.19;30001;983;1875;-60
2021/09/27 00:38:12;;;;;;;;;;;;;;;15.01;86.76;97123.09;30001;983;1880;-60
2021/09/27 00:38:43;;;;;;;;;;;;;;;15.01;86.72;97117.63;30001;983;1853;-60
2021/09/27 00:39:14;;;;;;;;;;;;;;;15.02;86.50;97121.97;30001;983;1875;-61
2021/09/27 00:39:46;;;;;;;;;;;;;;;15.02;86.60;97124.72;30001;983;1876;-61
2021/09/27 00:40:19;;;;;;;;;;;;;;;15.02;86.51;97111.03;30001;983;1858;-61
2021/09/27 00:40:54;;;;;;;;;;;;;;;15.01;86.77;97112.97;30001;983;1871;-61
2021/09/27 00:41:25;;;;;;;;;;;;;;;15.02;86.52;97111.03;30001;983;1880;-62
2021/09/27 00:41:56;;;;;;;;;;;;;;;15.02;86.49;97113.78;30001;983;1876;-61
2021/09/27 00:42:27;;;;;;;;;;;;;;;15.02;86.44;97113.78;30001;982;1880;-62
2021/09/27 00:42:58;;;;;;;;;;;;;;;15.01;86.70;97118.44;30001;982;1876;-59
2021/09/27 00:43:31;;;;;;;;;;;;;;;15.01;86.72;97117.63;30001;982;1880;-61
2021/09/27 00:44:02;;;;;;;;;;;;;;;14.99;86.50;97117.12;30001;982;1854;-61
2021/09/27 00:44:33;;;;;;;;;;;;;;;15.01;86.32;97112.16;30001;982;1876;-58
2021/09/27 00:45:05;;;;;;;;;;;;;;;14.99;86.67;97103.47;30001;983;1875;-61
2021/09/27 00:45:41;;;;;;;;;;;;;;;14.98;86.64;97110.06;30001;983;1880;-61
2021/09/27 00:46:14;;;;;;;;;;;;;;;14.95;86.87;97116.97;30001;983;1875;-61
2021/09/27 00:46:45;;;;;;;;;;;;;;;14.94;86.69;97111.81;30001;983;1880;-61
2021/09/27 00:47:16;;;;;;;;;;;;;;;14.93;86.92;97110.19;30001;983;1875;-61
2021/09/27 00:47:47;;;;;;;;;;;;;;;14.94;86.91;97109.06;30001;983;1880;-58
2021/09/27 00:48:18;;;;;;;;;;;;;;;14.95;86.95;97113.41;30001;983;1854;-61
2021/09/27 00:48:49;;;;;;;;;;;;;;;14.94;86.82;97112.63;30001;983;1875;-59
2021/09/27 00:49:20;;;;;;;;;;;;;;;14.96;86.86;97106.84;30001;982;1876;-57
2021/09/27 00:49:51;;;;;;;;;;;;;;;14.94;86.97;97104.41;30001;982;1880;-61
2021/09/27 00:50:24;;;;;;;;;;;;;;;14.93;86.92;97099.28;30001;982;1876;-58
2021/09/27 00:50:57;;;;;;;;;;;;;;;14.93;86.48;97102.00;30001;982;1880;-59
2021/09/27 00:51:34;;;;;;;;;;;;;;;14.93;86.76;97102.81;30001;982;1854;-61
2021/09/27 00:52:05;;;;;;;;;;;;;;;14.93;86.45;97102.00;30001;982;1876;-61
2021/09/27 00:52:36;;;;;;;;;;;;;;;14.92;86.71;97108.59;30001;983;1875;-60
2021/09/27 00:53:10;;;;;;;;;;;;;;;14.93;86.78;97104.72;30001;983;1880;-61
2021/09/27 00:53:46;;;;;;;;;;;;;;;14.91;86.95;97099.59;30001;983;1853;-60
2021/09/27 00:54:21;;;;;;;;;;;;;;;14.91;86.47;97098.78;30001;983;1854;-61
2021/09/27 00:54:53;;;;;;;;;;;;;;;14.90;87.01;97100.69;30001;983;1875;-61
2021/09/27 00:55:25;;;;;;;;;;;;;;;14.90;86.87;97106.16;30001;983;1880;-61
2021/09/27 00:55:56;;;;;;;;;;;;;;;14.89;87.01;97101.84;30001;983;1876;-60
2021/09/27 00:56:29;;;;;;;;;;;;;;;14.89;86.75;97104.59;30001;983;1880;-61
2021/09/27 00:57:04;;;;;;;;;;;;;;;14.89;86.69;97098.31;30001;982;1876;-62
2021/09/27 00:57:35;;;;;;;;;;;;;;;14.90;86.66;97102.66;30001;982;1858;-61
2021/09/27 00:58:06;;;;;;;;;;;;;;;14.90;86.56;97102.66;30001;982;1871;-61
2021/09/27 00:58:37;;;;;;;;;;;;;;;14.91;86.54;97094.12;30001;982;1880;-61
2021/09/27 00:59:09;;;;;;;;;;;;;;;14.92;86.81;97097.66;30001;982;1876;-61
2021/09/27 00:59:42;;;;;;;;;;;;;;;14.92;86.80;97103.13;30001;982;1881;-61
2021/09/27 01:00:15;;;;;;;;;;;;;;;14.93;86.47;97093.81;30001;983;1875;-62
2021/09/27 01:00:46;;;;;;;;;;;;;;;14.95;86.73;97102.50;30001;983;1880;-62
2021/09/27 01:01:17;;;;;;;;;;;;;;;14.99;86.36;97098.81;30001;983;1875;-62
2021/09/27 01:01:48;;;;;;;;;;;;;;;14.99;86.39;97101.53;30001;983;1858;-59
2021/09/27 01:02:19;;;;;;;;;;;;;;;15.00;86.38;97099.63;30001;983;1871;-61
2021/09/27 01:02:50;;;;;;;;;;;;;;;15.02;86.23;97097.37;30001;983;1880;-62
2021/09/27 01:03:22;;;;;;;;;;;;;;;15.01;86.19;97099.31;30001;983;1876;-58
2021/09/27 01:03:53;;;;;;;;;;;;;;;15.01;86.00;97112.16;30001;983;1858;-61
2021/09/27 01:04:25;;;;;;;;;;;;;;;14.99;86.19;97114.41;30001;982;1871;-62
2021/09/27 01:04:55;;;;;;;;;;;;;;;14.98;86.38;97110.06;30001;982;1880;-61
2021/09/27 01:05:27;;;;;;;;;;;;;;;14.96;86.45;97104.91;30001;982;1876;-61
2021/09/27 01:06:12;;;;;;;;;;;;;;;14.96;86.30;97106.84;30001;982;1880;-61
2021/09/27 01:06:59;;;;;;;;;;;;;;;14.94;86.21;97109.06;30001;982;1876;-62
2021/09/27 01:07:48;;;;;;;;;;;;;;;14.93;86.37;97107.47;30001;983;1880;-59
2021/09/27 01:08:29;;;;;;;;;;;;;;;14.92;86.41;97109.38;30001;983;1866;-62
2021/09/27 01:09:32;;;;;;;;;;;;;;;14.93;86.26;97115.66;30001;983;1858;-61
2021/09/27 01:10:29;;;;;;;;;;;;;;;14.93;86.50;97115.66;30001;983;1845;-61
2021/09/27 01:11:14;;;;;;;;;;;;;;;14.94;86.18;97106.34;30001;983;1880;-58
2021/09/27 01:12:19;;;;;;;;;;;;;;;14.93;86.27;97113.72;30001;982;1854;-61
2021/09/27 01:13:14;;;;;;;;;;;;;;;14.97;85.66;97111.19;30001;982;1871;-61
2021/09/27 01:13:53;;;;;;;;;;;;;;;14.97;85.81;97111.19;30001;982;1876;-58
2021/09/27 01:14:52;;;;;;;;;;;;;;;14.97;85.55;97105.72;30001;982;1881;-63
2021/09/27 01:15:52;;;;;;;;;;;;;;;15.00;85.54;97107.81;30001;983;1849;-62
2021/09/27 01:16:34;;;;;;;;;;;;;;;15.01;85.18;97106.69;30001;983;1871;-62
2021/09/27 01:17:37;;;;;;;;;;;;;;;15.01;85.14;97104.78;30001;983;1854;-64
2021/09/27 01:18:17;;;;;;;;;;;;;;;15.06;84.61;97103.81;30001;983;1849;-61
2021/09/27 01:19:08;;;;;;;;;;;;;;;15.05;84.54;97108.50;30001;983;1876;-62
2021/09/27 01:19:56;;;;;;;;;;;;;;;15.04;84.79;97106.06;30001;982;1876;-62
2021/09/27 01:20:55;;;;;;;;;;;;;;;15.02;84.86;97113.78;30001;982;1876;-61
2021/09/27 01:21:36;;;;;;;;;;;;;;;15.00;84.54;97110.56;30001;982;1876;-61
2021/09/27 01:22:25;;;;;;;;;;;;;;;14.97;84.72;97105.72;30001;983;1875;-62
2021/09/27 01:23:19;;;;;;;;;;;;;;;14.96;84.83;97112.31;30001;983;1849;-60
2021/09/27 01:24:12;;;;;;;;;;;;;;;15.00;84.88;97114.09;30001;983;1867;-61
2021/09/27 01:25:01;;;;;;;;;;;;;;;15.03;84.48;97109.91;30001;983;1875;-63
2021/09/27 01:26:04;;;;;;;;;;;;;;;14.99;84.70;97104.28;30001;983;1867;-61
2021/09/27 01:26:41;;;;;;;;;;;;;;;14.95;84.73;97110.69;30001;983;1880;-62
2021/09/27 01:27:23;;;;;;;;;;;;;;;14.93;84.85;97112.94;30001;982;1876;-61
2021/09/27 01:28:17;;;;;;;;;;;;;;;14.92;85.07;97114.03;30001;982;1859;-61
2021/09/27 01:29:16;;;;;;;;;;;;;;;14.88;85.13;97108.44;30001;982;1867;-61
2021/09/27 01:30:13;;;;;;;;;;;;;;;14.91;84.89;97106.97;30001;983;1875;-61
2021/09/27 01:30:52;;;;;;;;;;;;;;;14.92;84.87;97108.59;30001;963;1891;-63
2021/09/27 01:31:41;;;;;;;;;;;;;;;14.92;84.70;97109.38;30001;983;1880;-63
2021/09/27 01:32:34;;;;;;;;;;;;;;;14.94;84.77;97106.34;30001;983;1867;-62
2021/09/27 01:33:08;;;;;;;;;;;;;;;14.95;84.43;97107.97;30001;983;1854;-62
2021/09/27 01:33:57;;;;;;;;;;;;;;;14.94;84.43;97107.16;30001;983;1871;-61
2021/09/27 01:34:50;;;;;;;;;;;;;;;14.95;84.38;97108.75;30001;982;1858;-62
2021/09/27 01:35:53;;;;;;;;;;;;;;;14.91;84.58;97112.44;30001;982;1867;-61
2021/09/27 01:36:33;;;;;;;;;;;;;;;14.88;85.03;97108.44;30001;982;1876;-61
2021/09/27 01:37:38;;;;;;;;;;;;;;;14.86;84.97;97105.22;30001;983;1875;-61
2021/09/27 01:38:29;;;;;;;;;;;;;;;14.84;84.93;97107.44;30001;983;1875;-61
2021/09/27 01:39:17;;;;;;;;;;;;;;;14.83;85.20;97100.38;30001;983;1871;-61
2021/09/27 01:40:00;;;;;;;;;;;;;;;14.83;85.46;97100.38;30001;983;1858;-60
2021/09/27 01:40:59;;;;;;;;;;;;;;;14.82;85.38;97106.16;30001;983;1871;-61
2021/09/27 01:41:40;;;;;;;;;;;;;;;14.81;85.08;97096.34;30001;983;1876;-61
2021/09/27 01:42:18;;;;;;;;;;;;;;;14.80;85.41;97095.53;30001;982;1876;-62
2021/09/27 01:42:56;;;;;;;;;;;;;;;14.81;85.40;97094.41;30001;982;1881;-61
2021/09/27 01:43:30;;;;;;;;;;;;;;;14.82;85.04;97103.41;30001;982;1876;-61
2021/09/27 01:44:17;;;;;;;;;;;;;;;14.81;85.29;97101.81;30001;982;1880;-62
2021/09/27 01:44:56;;;;;;;;;;;;;;;14.84;85.29;97098.44;30001;983;1853;-62
2021/09/27 01:45:35;;;;;;;;;;;;;;;14.83;84.87;97099.56;30001;983;1875;-61
2021/09/27 01:46:18;;;;;;;;;;;;;;;14.82;85.11;97092.50;30001;983;1875;-60
2021/09/27 01:46:53;;;;;;;;;;;;;;;14.83;85.19;97100.38;30001;983;1880;-62
2021/09/27 01:47:27;;;;;;;;;;;;;;;14.82;85.41;97098.75;30001;983;1876;-62
2021/09/27 01:48:14;;;;;;;;;;;;;;;14.82;85.19;97098.75;30001;983;1880;-61
2021/09/27 01:48:51;;;;;;;;;;;;;;;14.82;85.11;97104.22;30001;983;1876;-61
2021/09/27 01:49:25;;;;;;;;;;;;;;;14.84;84.91;97095.72;30001;982;1858;-61
2021/09/27 01:50:17;;;;;;;;;;;;;;;14.84;84.74;97093.00;30001;982;1872;-62
2021/09/27 01:51:04;;;;;;;;;;;;;;;14.86;84.67;97099.75;30001;982;1880;-62
2021/09/27 01:51:50;;;;;;;;;;;;;;;14.85;84.43;97094.59;30001;982;1876;-61
2021/09/27 01:52:36;;;;;;;;;;;;;;;14.87;84.58;97097.81;30001;983;1880;-61
2021/09/27 01:53:14;;;;;;;;;;;;;;;14.87;84.38;97100.56;30001;983;1875;-61
2021/09/27 01:53:56;;;;;;;;;;;;;;;14.86;84.31;97091.56;30001;983;1858;-62
2021/09/27 01:54:36;;;;;;;;;;;;;;;14.86;84.46;97096.22;30001;983;1871;-58
2021/09/27 01:55:21;;;;;;;;;;;;;;;14.88;84.35;97097.50;30001;983;1880;-63
2021/09/27 01:55:58;;;;;;;;;;;;;;;14.86;84.17;97096.22;30001;983;1876;-62
2021/09/27 01:56:37;;;;;;;;;;;;;;;14.87;84.48;97095.09;30001;982;1880;-61
2021/09/27 01:57:15;;;;;;;;;;;;;;;14.87;84.52;97095.91;30001;982;1854;-58
2021/09/27 01:58:16;;;;;;;;;;;;;;;14.88;84.51;97091.25;30001;982;1876;-61
2021/09/27 01:58:58;;;;;;;;;;;;;;;14.86;84.33;97096.22;30001;982;1872;-61
2021/09/27 01:59:46;;;;;;;;;;;;;;;14.87;84.38;97097.81;30001;983;1880;-61
2021/09/27 02:00:26;;;;;;;;;;;;;;;14.86;84.55;97099.75;30001;983;1875;-62
2021/09/27 02:01:01;;;;;;;;;;;;;;;14.87;84.45;97100.56;30001;962;1896;-61
2021/09/27 02:01:40;;;;;;;;;;;;;;;14.88;84.56;97102.16;30001;983;1876;-61
2021/09/27 02:02:36;;;;;;;;;;;;;;;14.88;84.52;97102.97;30001;983;1858;-61
2021/09/27 02:03:36;;;;;;;;;;;;;;;14.87;84.45;97100.56;30001;983;1759;-62
2021/09/27 02:04:10;;;;;;;;;;;;;;;14.88;84.45;97099.44;30001;982;1850;-61
2021/09/27 02:04:58;;;;;;;;;;;;;;;14.88;84.43;97100.25;30001;982;1854;-61
2021/09/27 02:05:46;;;;;;;;;;;;;;;14.88;84.25;97099.44;30001;982;1854;-61
2021/09/27 02:06:21;;;;;;;;;;;;;;;14.85;84.14;97092.66;30001;982;1854;-61
2021/09/27 02:06:55;;;;;;;;;;;;;;;14.87;84.24;97095.91;30001;982;1876;-61
2021/09/27 02:07:28;;;;;;;;;;;;;;;14.87;83.92;97095.09;30001;983;1875;-62
2021/09/27 02:08:10;;;;;;;;;;;;;;;14.88;84.13;97099.44;30001;983;1880;-61
2021/09/27 02:09:15;;;;;;;;;;;;;;;14.88;83.80;97096.69;30001;983;1875;-60
2021/09/27 02:09:56;;;;;;;;;;;;;;;14.88;83.84;97096.69;30001;972;1874;-60
2021/09/27 02:10:35;;;;;;;;;;;;;;;14.88;83.84;97096.69;30001;983;1849;-62
2021/09/27 02:11:23;;;;;;;;;;;;;;;14.88;83.61;97089.31;30001;983;1880;-61
2021/09/27 02:12:12;;;;;;;;;;;;;;;14.87;83.67;97089.63;30001;982;1876;-61
2021/09/27 02:13:01;;;;;;;;;;;;;;;14.88;83.75;97094.78;30001;982;1880;-61
2021/09/27 02:13:36;;;;;;;;;;;;;;;14.89;83.66;97092.84;30001;963;1786;-60
2021/09/27 02:14:28;;;;;;;;;;;;;;;14.87;83.39;97095.09;30001;982;1859;-60
2021/09/27 02:15:05;;;;;;;;;;;;;;;14.87;83.59;97095.09;30001;983;1871;-61
2021/09/27 02:15:39;;;;;;;;;;;;;;;14.87;83.82;97095.91;30001;983;1880;-60
2021/09/27 02:16:20;;;;;;;;;;;;;;;14.87;83.74;97095.09;30001;983;1875;-60
2021/09/27 02:16:55;;;;;;;;;;;;;;;14.88;83.92;97099.44;30001;983;1880;-60
2021/09/27 02:17:34;;;;;;;;;;;;;;;14.87;83.76;97097.81;30001;983;1876;-60
2021/09/27 02:18:09;;;;;;;;;;;;;;;14.85;83.90;97097.31;30001;983;1880;-60
2021/09/27 02:19:00;;;;;;;;;;;;;;;14.85;83.94;97102.78;30001;983;1876;-60
2021/09/27 02:19:49;;;;;;;;;;;;;;;14.82;84.12;97093.31;30001;972;1872;-59
2021/09/27 02:20:24;;;;;;;;;;;;;;;14.80;84.38;97100.19;30001;982;1863;-59
2021/09/27 02:20:58;;;;;;;;;;;;;;;14.80;84.41;97100.19;30001;982;1880;-60
2021/09/27 02:21:30;;;;;;;;;;;;;;;14.79;84.17;97096.66;30001;982;1876;-60
2021/09/27 02:22:10;;;;;;;;;;;;;;;14.79;84.48;97104.03;30001;982;1881;-57
2021/09/27 02:22:57;;;;;;;;;;;;;;;14.80;84.13;97100.19;30001;983;1875;-61
2021/09/27 02:23:37;;;;;;;;;;;;;;;14.79;84.40;97093.12;30001;983;1880;-61
2021/09/27 02:24:18;;;;;;;;;;;;;;;14.78;84.23;97095.03;30001;983;1876;-61
2021/09/27 02:24:56;;;;;;;;;;;;;;;14.78;84.15;97094.25;30001;983;1858;-61
2021/09/27 02:25:33;;;;;;;;;;;;;;;14.78;84.22;97096.97;30001;983;1871;-58
2021/09/27 02:26:04;;;;;;;;;;;;;;;14.78;84.50;97096.97;30001;983;1858;-60
2021/09/27 02:26:35;;;;;;;;;;;;;;;14.77;84.28;97101.62;30001;982;1871;-60
2021/09/27 02:27:06;;;;;;;;;;;;;;;14.77;84.28;97098.09;30001;982;1880;-61
2021/09/27 02:27:37;;;;;;;;;;;;;;;14.76;84.44;97100.00;30001;982;1876;-59
2021/09/27 02:28:13;;;;;;;;;;;;;;;14.75;84.48;97104.69;30001;982;1881;-61
2021/09/27 02:28:44;;;;;;;;;;;;;;;14.75;84.29;97101.12;30001;982;1876;-61
2021/09/27 02:29:16;;;;;;;;;;;;;;;14.77;84.39;97106.28;30001;983;1880;-58
2021/09/27 02:29:47;;;;;;;;;;;;;;;14.75;84.50;97101.12;30001;983;1875;-61
2021/09/27 02:30:20;;;;;;;;;;;;;;;14.76;84.51;97110.94;30001;983;1858;-61
2021/09/27 02:31:20;;;;;;;;;;;;;;;14.74;84.61;97097.59;30001;983;1849;-61
2021/09/27 02:32:10;;;;;;;;;;;;;;;14.74;84.28;97114.00;30001;983;1875;-60
2021/09/27 02:32:45;;;;;;;;;;;;;;;14.74;84.33;97108.53;30001;983;1871;-62
2021/09/27 02:33:35;;;;;;;;;;;;;;;14.74;84.33;97105.78;30001;983;1880;-61
2021/09/27 02:34:19;;;;;;;;;;;;;;;14.75;84.20;97104.69;30001;982;1854;-61
2021/09/27 02:35:03;;;;;;;;;;;;;;;14.77;84.29;97100.81;30001;982;1876;-60
2021/09/27 02:35:40;;;;;;;;;;;;;;;14.75;84.46;97104.69;30001;982;1876;-61
2021/09/27 02:36:17;;;;;;;;;;;;;;;14.76;84.43;97105.47;30001;982;1880;-60
2021/09/27 02:36:58;;;;;;;;;;;;;;;14.77;84.09;97107.09;30001;983;1853;-61
2021/09/27 02:37:34;;;;;;;;;;;;;;;14.77;84.27;97106.28;30001;983;1875;-60
2021/09/27 02:38:09;;;;;;;;;;;;;;;14.78;84.32;97102.44;30001;983;1876;-61
2021/09/27 02:38:49;;;;;;;;;;;;;;;14.78;84.08;97105.97;30001;983;1880;-61
2021/09/27 02:39:29;;;;;;;;;;;;;;;14.78;84.27;97102.44;30001;983;1875;-62
2021/09/27 02:40:13;;;;;;;;;;;;;;;14.79;84.24;97104.03;30001;983;1880;-61
2021/09/27 02:40:51;;;;;;;;;;;;;;;14.79;84.28;97101.31;30001;983;1876;-61
2021/09/27 02:41:31;;;;;;;;;;;;;;;14.78;84.02;97099.69;30001;983;1880;-61
2021/09/27 02:42:07;;;;;;;;;;;;;;;14.78;84.25;97103.25;30001;982;1854;-61
2021/09/27 02:42:46;;;;;;;;;;;;;;;14.78;84.04;97100.50;30001;982;1876;-58
2021/09/27 02:43:17;;;;;;;;;;;;;;;14.77;84.11;97101.62;30001;982;1876;-57
2021/09/27 02:43:48;;;;;;;;;;;;;;;14.78;84.17;97102.44;30001;982;1880;-62
2021/09/27 02:44:19;;;;;;;;;;;;;;;14.79;84.15;97101.31;30001;983;1875;-61
2021/09/27 02:44:50;;;;;;;;;;;;;;;14.79;84.32;97098.59;30001;983;1880;-58
2021/09/27 02:45:22;;;;;;;;;;;;;;;14.78;84.19;97099.69;30001;983;1875;-61
2021/09/27 02:45:54;;;;;;;;;;;;;;;14.79;84.42;97101.31;30001;983;1880;-61
2021/09/27 02:46:25;;;;;;;;;;;;;;;14.79;84.34;97104.03;30001;983;1876;-61
2021/09/27 02:47:02;;;;;;;;;;;;;;;14.78;84.18;97103.25;30002;759;1015;-61
2021/09/27 02:47:37;;;;;;;;;;;;;;;14.79;84.39;97098.59;30001;983;1729;-60
2021/09/27 02:48:15;;;;;;;;;;;;;;;14.78;84.37;97096.97;30001;983;1880;-61
2021/09/27 02:48:57;;;;;;;;;;;;;;;14.79;84.10;97098.59;30001;968;1891;-61
2021/09/27 02:49:41;;;;;;;;;;;;;;;14.81;84.22;97101.81;30001;982;1880;-61
2021/09/27 02:50:17;;;;;;;;;;;;;;;14.81;84.49;97096.34;30001;982;1876;-61
2021/09/27 02:50:51;;;;;;;;;;;;;;;14.82;84.53;97109.69;30001;982;1880;-61
2021/09/27 02:51:22;;;;;;;;;;;;;;;14.80;84.29;97100.19;30001;982;1876;-61
2021/09/27 02:51:55;;;;;;;;;;;;;;;14.80;84.40;97101.00;30001;983;1880;-61
2021/09/27 02:52:26;;;;;;;;;;;;;;;14.80;84.64;97094.72;30001;983;1875;-61
2021/09/27 02:52:58;;;;;;;;;;;;;;;14.79;84.60;97096.66;30001;983;1858;-61
2021/09/27 02:53:29;;;;;;;;;;;;;;;14.79;84.93;97099.38;30001;983;1871;-61
2021/09/27 02:54:00;;;;;;;;;;;;;;;14.80;84.95;97102.94;30001;983;1880;-61
2021/09/27 02:54:37;;;;;;;;;;;;;;;14.80;84.91;97100.19;30001;983;1876;-61
2021/09/27 02:55:14;;;;;;;;;;;;;;;14.79;84.92;97104.03;30001;983;1858;-61
2021/09/27 02:56:04;;;;;;;;;;;;;;;14.77;85.20;97107.09;30001;983;1871;-62
2021/09/27 02:56:47;;;;;;;;;;;;;;;14.78;85.17;97102.44;30001;982;1876;-61
2021/09/27 02:57:34;;;;;;;;;;;;;;;14.77;85.18;97103.56;30001;982;1876;-58
2021/09/27 02:58:13;;;;;;;;;;;;;;;14.77;85.66;97106.28;30001;982;1881;-61
2021/09/27 02:59:06;;;;;;;;;;;;;;;14.77;85.58;97107.09;30001;982;1876;-61
2021/09/27 02:59:48;;;;;;;;;;;;;;;14.79;85.25;97104.84;30001;983;1853;-61
2021/09/27 03:00:22;;;;;;;;;;;;;;;14.78;85.30;97102.44;30001;983;1871;-60
2021/09/27 03:01:00;;;;;;;;;;;;;;;14.80;85.16;97105.66;30001;983;1880;-61
2021/09/27 03:01:48;;;;;;;;;;;;;;;14.79;84.73;97109.50;30001;983;1876;-60
2021/09/27 03:02:29;;;;;;;;;;;;;;;14.79;84.91;97107.59;30001;983;1880;-61
2021/09/27 03:03:19;;;;;;;;;;;;;;;14.79;84.65;97104.03;30001;983;1876;-62
2021/09/27 03:04:06;;;;;;;;;;;;;;;14.79;84.37;97109.50;30001;982;1854;-62
2021/09/27 03:04:54;;;;;;;;;;;;;;;14.78;84.49;97102.44;30001;982;1872;-61
2021/09/27 03:05:54;;;;;;;;;;;;;;;14.79;84.73;97104.03;30001;982;1871;-60
2021/09/27 03:06:45;;;;;;;;;;;;;;;14.79;84.59;97109.50;30001;982;1850;-61
2021/09/27 03:07:20;;;;;;;;;;;;;;;14.78;84.47;97102.44;30001;983;1849;-61
2021/09/27 03:08:14;;;;;;;;;;;;;;;14.78;84.45;97107.91;30001;983;1875;-62
2021/09/27 03:08:53;;;;;;;;;;;;;;;14.77;84.21;97098.09;30001;983;1876;-60
2021/09/27 03:09:34;;;;;;;;;;;;;;;14.77;84.06;97111.75;30001;983;1876;-60
2021/09/27 03:10:28;;;;;;;;;;;;;;;14.75;84.15;97110.13;30001;983;1880;-61
2021/09/27 03:11:26;;;;;;;;;;;;;;;14.75;84.01;97110.13;30001;982;1872;-61
2021/09/27 03:12:06;;;;;;;;;;;;;;;14.78;83.77;97103.25;30001;985;1880;-62
2021/09/27 03:12:40;;;;;;;;;;;;;;;14.78;83.87;97107.91;30001;982;1854;-60
2021/09/27 03:13:29;;;;;;;;;;;;;;;14.79;83.92;97106.78;30001;982;1876;-60
2021/09/27 03:14:18;;;;;;;;;;;;;;;14.79;83.97;97109.50;30001;982;1845;-61
2021/09/27 03:15:09;;;;;;;;;;;;;;;14.78;83.82;97107.91;30001;983;1870;-60
2021/09/27 03:15:56;;;;;;;;;;;;;;;14.78;83.85;97107.91;30001;983;1871;-61
2021/09/27 03:16:45;;;;;;;;;;;;;;;14.77;83.96;97107.09;30001;983;1880;-61
2021/09/27 03:17:24;;;;;;;;;;;;;;;14.78;83.74;97105.16;30001;983;1867;-60
2021/09/27 03:18:13;;;;;;;;;;;;;;;14.78;83.86;97107.91;30001;983;1880;-60
2021/09/27 03:19:03;;;;;;;;;;;;;;;14.75;84.23;97104.69;30001;982;1818;-61
2021/09/27 03:19:54;;;;;;;;;;;;;;;14.75;83.89;97103.88;30001;982;1859;-61
2021/09/27 03:20:48;;;;;;;;;;;;;;;14.74;84.38;97108.53;30001;982;1867;-63
2021/09/27 03:21:31;;;;;;;;;;;;;;;14.74;83.87;97103.06;30001;982;1859;-60
2021/09/27 03:22:22;;;;;;;;;;;;;;;14.74;84.15;97104.97;30001;983;1871;-61
2021/09/27 03:23:05;;;;;;;;;;;;;;;14.75;84.12;97107.41;30001;983;1875;-59
2021/09/27 03:24:11;;;;;;;;;;;;;;;14.75;84.23;97104.69;30001;983;1876;-61
2021/09/27 03:25:03;;;;;;;;;;;;;;;14.75;84.10;97104.69;30001;983;1854;-61
2021/09/27 03:25:51;;;;;;;;;;;;;;;14.76;83.89;97108.22;30001;983;1871;-61
2021/09/27 03:26:45;;;;;;;;;;;;;;;14.77;83.67;97106.28;30001;982;1880;-62
2021/09/27 03:27:35;;;;;;;;;;;;;;;14.78;83.73;97103.25;30001;982;1850;-62
2021/09/27 03:28:14;;;;;;;;;;;;;;;14.79;83.98;97102.13;30001;982;1872;-61